sensor_id;sensor_type;location;lat;lon;timestamp;P1;durP1;ratioP1;P2;durP2;ratioP2
60851;SDS011;48553;50.766;2.900;2023-05-07T00:02:37;8.48;;;3.58;;
60851;SDS011;48553;50.766;2.900;2023-05-07T00:05:37;8.95;;;3.60;;
60851;SDS011;48553;50.766;2.900;2023-05-07T00:08:39;9.13;;;3.80;;
60851;SDS011;48553;50.766;2.900;2023-05-07T00:11:39;9.77;;;3.85;;
60851;SDS011;48553;50.766;2.900;2023-05-07T00:14:40;8.32;;;3.55;;
60851;SDS011;48553;50.766;2.900;2023-05-07T00:17:40;8.50;;;3.85;;
60851;SDS011;48553;50.766;2.900;2023-05-07T00:20:41;10.43;;;3.67;;
60851;SDS011;48553;50.766;2.900;2023-05-07T00:23:41;7.75;;;3.60;;
60851;SDS011;48553;50.766;2.900;2023-05-07T00:26:42;10.63;;;3.83;;
60851;SDS011;48553;50.766;2.900;2023-05-07T00:29:42;9.27;;;3.72;;
60851;SDS011;48553;50.766;2.900;2023-05-07T00:32:43;9.98;;;3.67;;
60851;SDS011;48553;50.766;2.900;2023-05-07T00:35:45;7.22;;;3.60;;
60851;SDS011;48553;50.766;2.900;2023-05-07T00:38:45;9.50;;;3.60;;
60851;SDS011;48553;50.766;2.900;2023-05-07T00:41:46;8.63;;;3.45;;
60851;SDS011;48553;50.766;2.900;2023-05-07T00:44:47;8.88;;;3.80;;
60851;SDS011;48553;50.766;2.900;2023-05-07T00:47:47;8.85;;;3.70;;
60851;SDS011;48553;50.766;2.900;2023-05-07T00:50:47;8.68;;;3.67;;
60851;SDS011;48553;50.766;2.900;2023-05-07T00:53:48;8.82;;;3.78;;
60851;SDS011;48553;50.766;2.900;2023-05-07T00:56:48;10.77;;;3.83;;
60851;SDS011;48553;50.766;2.900;2023-05-07T00:59:50;9.38;;;3.45;;
60851;SDS011;48553;50.766;2.900;2023-05-07T01:02:51;8.77;;;3.40;;
60851;SDS011;48553;50.766;2.900;2023-05-07T01:05:52;11.88;;;4.10;;
60851;SDS011;48553;50.766;2.900;2023-05-07T01:08:55;8.18;;;3.15;;
60851;SDS011;48553;50.766;2.900;2023-05-07T01:11:57;8.27;;;3.88;;
60851;SDS011;48553;50.766;2.900;2023-05-07T01:14:58;7.38;;;3.45;;
60851;SDS011;48553;50.766;2.900;2023-05-07T01:17:59;8.88;;;3.83;;
60851;SDS011;48553;50.766;2.900;2023-05-07T01:20:59;8.50;;;3.90;;
60851;SDS011;48553;50.766;2.900;2023-05-07T01:27:05;9.85;;;3.63;;
60851;SDS011;48553;50.766;2.900;2023-05-07T01:30:05;11.32;;;4.43;;
60851;SDS011;48553;50.766;2.900;2023-05-07T01:33:08;11.70;;;4.38;;
60851;SDS011;48553;50.766;2.900;2023-05-07T01:36:11;10.73;;;4.35;;
60851;SDS011;48553;50.766;2.900;2023-05-07T01:39:13;12.07;;;4.72;;
60851;SDS011;48553;50.766;2.900;2023-05-07T01:42:14;11.48;;;4.97;;
60851;SDS011;48553;50.766;2.900;2023-05-07T01:45:15;11.35;;;4.45;;
60851;SDS011;48553;50.766;2.900;2023-05-07T01:48:15;10.00;;;4.72;;
60851;SDS011;48553;50.766;2.900;2023-05-07T01:51:16;10.48;;;4.70;;
60851;SDS011;48553;50.766;2.900;2023-05-07T01:54:16;11.07;;;4.70;;
60851;SDS011;48553;50.766;2.900;2023-05-07T01:57:17;14.93;;;5.07;;
60851;SDS011;48553;50.766;2.900;2023-05-07T02:00:17;13.88;;;5.05;;
60851;SDS011;48553;50.766;2.900;2023-05-07T02:03:18;9.35;;;4.57;;
60851;SDS011;48553;50.766;2.900;2023-05-07T02:06:19;10.65;;;4.85;;
60851;SDS011;48553;50.766;2.900;2023-05-07T02:09:20;11.75;;;5.07;;
60851;SDS011;48553;50.766;2.900;2023-05-07T02:12:20;11.68;;;4.95;;
60851;SDS011;48553;50.766;2.900;2023-05-07T02:15:21;10.15;;;4.85;;
60851;SDS011;48553;50.766;2.900;2023-05-07T02:18:21;12.52;;;5.35;;
60851;SDS011;48553;50.766;2.900;2023-05-07T02:21:22;11.27;;;5.03;;
60851;SDS011;48553;50.766;2.900;2023-05-07T02:24:22;11.75;;;4.95;;
60851;SDS011;48553;50.766;2.900;2023-05-07T02:27:23;11.45;;;4.85;;
60851;SDS011;48553;50.766;2.900;2023-05-07T02:30:24;9.82;;;4.53;;
60851;SDS011;48553;50.766;2.900;2023-05-07T02:33:25;8.93;;;4.85;;
60851;SDS011;48553;50.766;2.900;2023-05-07T02:36:25;8.98;;;4.38;;
60851;SDS011;48553;50.766;2.900;2023-05-07T02:39:26;10.65;;;4.57;;
60851;SDS011;48553;50.766;2.900;2023-05-07T02:42:27;11.10;;;4.97;;
60851;SDS011;48553;50.766;2.900;2023-05-07T02:45:27;12.38;;;4.80;;
60851;SDS011;48553;50.766;2.900;2023-05-07T02:48:28;10.57;;;4.68;;
60851;SDS011;48553;50.766;2.900;2023-05-07T02:51:29;10.55;;;5.18;;
60851;SDS011;48553;50.766;2.900;2023-05-07T02:54:30;12.35;;;5.30;;
60851;SDS011;48553;50.766;2.900;2023-05-07T02:57:31;10.38;;;5.15;;
60851;SDS011;48553;50.766;2.900;2023-05-07T03:00:31;10.27;;;5.40;;
60851;SDS011;48553;50.766;2.900;2023-05-07T03:03:32;9.68;;;5.10;;
60851;SDS011;48553;50.766;2.900;2023-05-07T03:06:32;11.38;;;5.13;;
60851;SDS011;48553;50.766;2.900;2023-05-07T03:09:33;10.45;;;5.00;;
60851;SDS011;48553;50.766;2.900;2023-05-07T03:12:33;10.90;;;5.68;;
60851;SDS011;48553;50.766;2.900;2023-05-07T03:15:33;10.38;;;5.18;;
60851;SDS011;48553;50.766;2.900;2023-05-07T03:18:34;11.40;;;5.30;;
60851;SDS011;48553;50.766;2.900;2023-05-07T03:21:34;11.20;;;5.45;;
60851;SDS011;48553;50.766;2.900;2023-05-07T03:24:34;9.40;;;5.15;;
60851;SDS011;48553;50.766;2.900;2023-05-07T03:27:35;10.93;;;5.50;;
60851;SDS011;48553;50.766;2.900;2023-05-07T03:30:35;10.55;;;5.22;;
60851;SDS011;48553;50.766;2.900;2023-05-07T03:33:38;9.98;;;5.13;;
60851;SDS011;48553;50.766;2.900;2023-05-07T03:36:50;12.18;;;5.68;;
60851;SDS011;48553;50.766;2.900;2023-05-07T03:39:50;12.45;;;5.30;;
60851;SDS011;48553;50.766;2.900;2023-05-07T03:42:51;12.52;;;6.10;;
60851;SDS011;48553;50.766;2.900;2023-05-07T03:45:51;11.00;;;5.57;;
60851;SDS011;48553;50.766;2.900;2023-05-07T03:48:51;9.65;;;5.63;;
60851;SDS011;48553;50.766;2.900;2023-05-07T03:51:52;10.85;;;5.63;;
60851;SDS011;48553;50.766;2.900;2023-05-07T03:54:53;10.90;;;6.13;;
60851;SDS011;48553;50.766;2.900;2023-05-07T03:57:53;12.05;;;5.95;;
60851;SDS011;48553;50.766;2.900;2023-05-07T04:00:54;12.43;;;5.88;;
60851;SDS011;48553;50.766;2.900;2023-05-07T04:03:55;9.82;;;5.63;;
60851;SDS011;48553;50.766;2.900;2023-05-07T04:06:56;12.52;;;5.95;;
60851;SDS011;48553;50.766;2.900;2023-05-07T04:09:56;10.75;;;5.80;;
60851;SDS011;48553;50.766;2.900;2023-05-07T04:12:57;13.77;;;6.75;;
60851;SDS011;48553;50.766;2.900;2023-05-07T04:15:57;11.52;;;6.10;;
60851;SDS011;48553;50.766;2.900;2023-05-07T04:19:00;11.98;;;6.20;;
60851;SDS011;48553;50.766;2.900;2023-05-07T04:22:01;10.48;;;6.28;;
60851;SDS011;48553;50.766;2.900;2023-05-07T04:25:01;10.88;;;6.60;;
60851;SDS011;48553;50.766;2.900;2023-05-07T04:28:02;13.10;;;7.00;;
60851;SDS011;48553;50.766;2.900;2023-05-07T04:31:03;12.52;;;6.80;;
60851;SDS011;48553;50.766;2.900;2023-05-07T04:34:03;13.60;;;6.65;;
60851;SDS011;48553;50.766;2.900;2023-05-07T04:37:04;14.55;;;7.28;;
60851;SDS011;48553;50.766;2.900;2023-05-07T04:40:04;12.57;;;6.78;;
60851;SDS011;48553;50.766;2.900;2023-05-07T04:43:05;12.93;;;6.95;;
60851;SDS011;48553;50.766;2.900;2023-05-07T04:46:07;13.63;;;6.38;;
60851;SDS011;48553;50.766;2.900;2023-05-07T04:49:07;15.82;;;6.63;;
60851;SDS011;48553;50.766;2.900;2023-05-07T04:52:08;12.60;;;6.85;;
60851;SDS011;48553;50.766;2.900;2023-05-07T04:55:08;11.93;;;6.70;;
60851;SDS011;48553;50.766;2.900;2023-05-07T04:58:09;11.63;;;6.57;;
60851;SDS011;48553;50.766;2.900;2023-05-07T05:01:09;13.35;;;6.82;;
60851;SDS011;48553;50.766;2.900;2023-05-07T05:04:10;11.82;;;6.55;;
60851;SDS011;48553;50.766;2.900;2023-05-07T05:07:11;11.80;;;6.45;;
60851;SDS011;48553;50.766;2.900;2023-05-07T05:10:11;13.25;;;6.90;;
60851;SDS011;48553;50.766;2.900;2023-05-07T05:13:11;13.07;;;6.22;;
60851;SDS011;48553;50.766;2.900;2023-05-07T05:16:12;9.60;;;6.00;;
60851;SDS011;48553;50.766;2.900;2023-05-07T05:19:13;12.75;;;7.13;;
60851;SDS011;48553;50.766;2.900;2023-05-07T05:22:13;14.80;;;6.75;;
60851;SDS011;48553;50.766;2.900;2023-05-07T05:25:14;13.05;;;6.35;;
60851;SDS011;48553;50.766;2.900;2023-05-07T05:28:14;13.88;;;6.78;;
60851;SDS011;48553;50.766;2.900;2023-05-07T05:31:16;12.88;;;6.78;;
60851;SDS011;48553;50.766;2.900;2023-05-07T05:34:16;15.68;;;6.43;;
60851;SDS011;48553;50.766;2.900;2023-05-07T05:37:19;13.75;;;6.63;;
60851;SDS011;48553;50.766;2.900;2023-05-07T05:40:19;12.88;;;6.40;;
60851;SDS011;48553;50.766;2.900;2023-05-07T05:43:20;14.48;;;6.90;;
60851;SDS011;48553;50.766;2.900;2023-05-07T05:46:20;12.68;;;6.70;;
60851;SDS011;48553;50.766;2.900;2023-05-07T05:49:21;12.55;;;7.05;;
60851;SDS011;48553;50.766;2.900;2023-05-07T05:52:22;12.90;;;6.57;;
60851;SDS011;48553;50.766;2.900;2023-05-07T05:55:23;13.48;;;6.32;;
60851;SDS011;48553;50.766;2.900;2023-05-07T05:58:24;13.93;;;6.80;;
60851;SDS011;48553;50.766;2.900;2023-05-07T06:01:24;11.90;;;6.40;;
60851;SDS011;48553;50.766;2.900;2023-05-07T06:04:25;12.27;;;6.57;;
60851;SDS011;48553;50.766;2.900;2023-05-07T06:07:25;12.60;;;6.63;;
60851;SDS011;48553;50.766;2.900;2023-05-07T06:10:26;11.80;;;6.63;;
60851;SDS011;48553;50.766;2.900;2023-05-07T06:13:27;11.45;;;6.35;;
60851;SDS011;48553;50.766;2.900;2023-05-07T06:16:28;15.85;;;7.28;;
60851;SDS011;48553;50.766;2.900;2023-05-07T06:19:28;11.82;;;6.50;;
60851;SDS011;48553;50.766;2.900;2023-05-07T06:22:29;14.75;;;6.60;;
60851;SDS011;48553;50.766;2.900;2023-05-07T06:25:29;15.15;;;6.93;;
60851;SDS011;48553;50.766;2.900;2023-05-07T06:28:30;16.48;;;6.80;;
60851;SDS011;48553;50.766;2.900;2023-05-07T06:31:35;10.50;;;6.15;;
60851;SDS011;48553;50.766;2.900;2023-05-07T06:34:36;12.55;;;6.63;;
60851;SDS011;48553;50.766;2.900;2023-05-07T06:37:36;12.65;;;6.93;;
60851;SDS011;48553;50.766;2.900;2023-05-07T06:40:39;12.15;;;6.47;;
60851;SDS011;48553;50.766;2.900;2023-05-07T06:43:39;11.65;;;6.90;;
60851;SDS011;48553;50.766;2.900;2023-05-07T06:46:40;12.30;;;6.68;;
60851;SDS011;48553;50.766;2.900;2023-05-07T06:49:41;13.98;;;6.43;;
60851;SDS011;48553;50.766;2.900;2023-05-07T06:52:41;10.65;;;6.15;;
60851;SDS011;48553;50.766;2.900;2023-05-07T06:55:42;14.63;;;6.47;;
60851;SDS011;48553;50.766;2.900;2023-05-07T06:58:42;15.60;;;6.65;;
60851;SDS011;48553;50.766;2.900;2023-05-07T07:01:43;11.50;;;6.05;;
60851;SDS011;48553;50.766;2.900;2023-05-07T07:04:43;11.95;;;6.45;;
60851;SDS011;48553;50.766;2.900;2023-05-07T07:07:45;15.23;;;6.40;;
60851;SDS011;48553;50.766;2.900;2023-05-07T07:10:52;11.93;;;5.93;;
60851;SDS011;48553;50.766;2.900;2023-05-07T07:13:52;11.70;;;6.22;;
60851;SDS011;48553;50.766;2.900;2023-05-07T07:16:54;13.93;;;6.30;;
60851;SDS011;48553;50.766;2.900;2023-05-07T07:19:55;11.52;;;5.70;;
60851;SDS011;48553;50.766;2.900;2023-05-07T07:22:55;8.98;;;5.65;;
60851;SDS011;48553;50.766;2.900;2023-05-07T07:25:55;13.48;;;5.80;;
60851;SDS011;48553;50.766;2.900;2023-05-07T07:28:56;11.45;;;5.65;;
60851;SDS011;48553;50.766;2.900;2023-05-07T07:31:56;9.10;;;5.50;;
60851;SDS011;48553;50.766;2.900;2023-05-07T07:34:57;10.32;;;5.38;;
60851;SDS011;48553;50.766;2.900;2023-05-07T07:37:57;12.20;;;5.00;;
60851;SDS011;48553;50.766;2.900;2023-05-07T07:40:58;9.75;;;4.88;;
60851;SDS011;48553;50.766;2.900;2023-05-07T07:43:58;8.93;;;5.03;;
60851;SDS011;48553;50.766;2.900;2023-05-07T07:46:59;11.00;;;4.90;;
60851;SDS011;48553;50.766;2.900;2023-05-07T07:49:59;9.77;;;4.57;;
60851;SDS011;48553;50.766;2.900;2023-05-07T07:52:59;8.07;;;4.50;;
60851;SDS011;48553;50.766;2.900;2023-05-07T07:56:00;7.43;;;4.22;;
60851;SDS011;48553;50.766;2.900;2023-05-07T07:59:01;8.05;;;4.10;;
60851;SDS011;48553;50.766;2.900;2023-05-07T08:02:01;8.65;;;4.13;;
60851;SDS011;48553;50.766;2.900;2023-05-07T08:05:02;12.68;;;4.05;;
60851;SDS011;48553;50.766;2.900;2023-05-07T08:08:02;8.65;;;4.30;;
60851;SDS011;48553;50.766;2.900;2023-05-07T08:11:03;9.75;;;4.55;;
60851;SDS011;48553;50.766;2.900;2023-05-07T08:14:03;10.80;;;4.28;;
60851;SDS011;48553;50.766;2.900;2023-05-07T08:17:03;9.50;;;4.30;;
60851;SDS011;48553;50.766;2.900;2023-05-07T08:20:04;8.95;;;3.88;;
60851;SDS011;48553;50.766;2.900;2023-05-07T08:23:05;9.05;;;4.28;;
60851;SDS011;48553;50.766;2.900;2023-05-07T08:26:08;7.07;;;3.88;;
60851;SDS011;48553;50.766;2.900;2023-05-07T08:29:09;6.60;;;3.78;;
60851;SDS011;48553;50.766;2.900;2023-05-07T08:32:09;8.98;;;3.58;;
60851;SDS011;48553;50.766;2.900;2023-05-07T08:35:10;6.68;;;3.50;;
60851;SDS011;48553;50.766;2.900;2023-05-07T08:38:10;8.23;;;3.40;;
60851;SDS011;48553;50.766;2.900;2023-05-07T08:41:11;8.20;;;3.47;;
60851;SDS011;48553;50.766;2.900;2023-05-07T08:44:12;5.90;;;3.30;;
60851;SDS011;48553;50.766;2.900;2023-05-07T08:47:14;9.18;;;3.78;;
60851;SDS011;48553;50.766;2.900;2023-05-07T08:50:14;8.55;;;3.40;;
60851;SDS011;48553;50.766;2.900;2023-05-07T08:53:15;6.18;;;3.30;;
60851;SDS011;48553;50.766;2.900;2023-05-07T08:56:16;5.97;;;3.08;;
60851;SDS011;48553;50.766;2.900;2023-05-07T08:59:17;6.35;;;3.10;;
60851;SDS011;48553;50.766;2.900;2023-05-07T09:02:18;7.10;;;3.17;;
60851;SDS011;48553;50.766;2.900;2023-05-07T09:05:19;6.03;;;3.17;;
60851;SDS011;48553;50.766;2.900;2023-05-07T09:08:23;6.10;;;3.05;;
60851;SDS011;48553;50.766;2.900;2023-05-07T09:11:27;7.30;;;3.03;;
60851;SDS011;48553;50.766;2.900;2023-05-07T09:14:28;7.40;;;3.38;;
60851;SDS011;48553;50.766;2.900;2023-05-07T09:17:28;6.28;;;3.25;;
60851;SDS011;48553;50.766;2.900;2023-05-07T09:20:32;8.60;;;4.43;;
60851;SDS011;48553;50.766;2.900;2023-05-07T09:23:33;7.38;;;3.30;;
60851;SDS011;48553;50.766;2.900;2023-05-07T09:26:33;5.57;;;3.47;;
60851;SDS011;48553;50.766;2.900;2023-05-07T09:29:34;8.80;;;3.70;;
60851;SDS011;48553;50.766;2.900;2023-05-07T09:32:35;7.72;;;3.40;;
60851;SDS011;48553;50.766;2.900;2023-05-07T09:35:39;8.45;;;3.83;;
60851;SDS011;48553;50.766;2.900;2023-05-07T09:38:39;9.70;;;4.75;;
60851;SDS011;48553;50.766;2.900;2023-05-07T09:41:46;11.20;;;5.30;;
60851;SDS011;48553;50.766;2.900;2023-05-07T09:44:47;13.85;;;5.45;;
60851;SDS011;48553;50.766;2.900;2023-05-07T09:47:48;10.25;;;5.28;;
60851;SDS011;48553;50.766;2.900;2023-05-07T09:50:54;9.88;;;5.55;;
60851;SDS011;48553;50.766;2.900;2023-05-07T09:53:58;10.88;;;5.68;;
60851;SDS011;48553;50.766;2.900;2023-05-07T09:57:01;11.40;;;6.32;;
60851;SDS011;48553;50.766;2.900;2023-05-07T10:00:03;11.00;;;6.22;;
60851;SDS011;48553;50.766;2.900;2023-05-07T10:03:08;10.85;;;6.10;;
60851;SDS011;48553;50.766;2.900;2023-05-07T10:06:09;11.52;;;6.10;;
60851;SDS011;48553;50.766;2.900;2023-05-07T10:09:10;10.35;;;5.35;;
60851;SDS011;48553;50.766;2.900;2023-05-07T10:12:11;11.40;;;6.55;;
60851;SDS011;48553;50.766;2.900;2023-05-07T10:15:12;11.10;;;6.38;;
60851;SDS011;48553;50.766;2.900;2023-05-07T10:18:14;10.27;;;6.60;;
60851;SDS011;48553;50.766;2.900;2023-05-07T10:21:19;9.02;;;6.20;;
60851;SDS011;48553;50.766;2.900;2023-05-07T10:24:29;12.15;;;6.45;;
60851;SDS011;48553;50.766;2.900;2023-05-07T10:27:33;10.65;;;6.18;;
60851;SDS011;48553;50.766;2.900;2023-05-07T10:33:56;10.10;;;6.20;;
60851;SDS011;48553;50.766;2.900;2023-05-07T10:36:58;10.75;;;6.40;;
60851;SDS011;48553;50.766;2.900;2023-05-07T10:39:58;9.35;;;5.32;;
60851;SDS011;48553;50.766;2.900;2023-05-07T10:43:00;9.93;;;5.55;;
60851;SDS011;48553;50.766;2.900;2023-05-07T10:46:14;10.10;;;5.97;;
60851;SDS011;48553;50.766;2.900;2023-05-07T10:49:18;8.35;;;5.60;;
60851;SDS011;48553;50.766;2.900;2023-05-07T10:52:20;9.82;;;5.63;;
60851;SDS011;48553;50.766;2.900;2023-05-07T10:55:23;11.00;;;5.80;;
60851;SDS011;48553;50.766;2.900;2023-05-07T10:58:27;7.57;;;5.25;;
60851;SDS011;48553;50.766;2.900;2023-05-07T11:08:22;9.65;;;5.50;;
60851;SDS011;48553;50.766;2.900;2023-05-07T11:14:46;7.55;;;5.15;;
60851;SDS011;48553;50.766;2.900;2023-05-07T11:17:59;8.55;;;5.85;;
60851;SDS011;48553;50.766;2.900;2023-05-07T11:20:59;9.55;;;5.70;;
60851;SDS011;48553;50.766;2.900;2023-05-07T11:24:01;9.48;;;6.00;;
60851;SDS011;48553;50.766;2.900;2023-05-07T11:27:02;10.93;;;5.88;;
60851;SDS011;48553;50.766;2.900;2023-05-07T11:30:03;10.27;;;5.90;;
60851;SDS011;48553;50.766;2.900;2023-05-07T11:33:04;10.80;;;5.55;;
60851;SDS011;48553;50.766;2.900;2023-05-07T11:36:05;8.93;;;5.47;;
60851;SDS011;48553;50.766;2.900;2023-05-07T11:42:37;9.10;;;5.47;;
60851;SDS011;48553;50.766;2.900;2023-05-07T11:45:38;7.95;;;5.22;;
60851;SDS011;48553;50.766;2.900;2023-05-07T11:48:39;9.32;;;5.68;;
60851;SDS011;48553;50.766;2.900;2023-05-07T11:51:41;11.65;;;6.45;;
60851;SDS011;48553;50.766;2.900;2023-05-07T11:54:48;9.48;;;5.65;;
60851;SDS011;48553;50.766;2.900;2023-05-07T11:57:52;10.82;;;5.63;;
60851;SDS011;48553;50.766;2.900;2023-05-07T12:00:53;8.13;;;5.35;;
60851;SDS011;48553;50.766;2.900;2023-05-07T12:03:54;10.30;;;5.70;;
60851;SDS011;48553;50.766;2.900;2023-05-07T12:06:54;9.25;;;5.53;;
60851;SDS011;48553;50.766;2.900;2023-05-07T12:09:55;8.43;;;5.55;;
60851;SDS011;48553;50.766;2.900;2023-05-07T12:12:56;9.70;;;5.18;;
60851;SDS011;48553;50.766;2.900;2023-05-07T12:15:56;9.75;;;5.43;;
60851;SDS011;48553;50.766;2.900;2023-05-07T12:18:57;10.18;;;6.07;;
60851;SDS011;48553;50.766;2.900;2023-05-07T12:21:59;11.05;;;6.13;;
60851;SDS011;48553;50.766;2.900;2023-05-07T12:24:59;12.05;;;6.32;;
60851;SDS011;48553;50.766;2.900;2023-05-07T12:28:00;9.95;;;6.10;;
60851;SDS011;48553;50.766;2.900;2023-05-07T12:31:01;9.75;;;5.70;;
60851;SDS011;48553;50.766;2.900;2023-05-07T12:34:02;9.27;;;5.22;;
60851;SDS011;48553;50.766;2.900;2023-05-07T12:37:02;8.95;;;5.57;;
60851;SDS011;48553;50.766;2.900;2023-05-07T12:40:04;10.23;;;5.75;;
60851;SDS011;48553;50.766;2.900;2023-05-07T12:43:18;9.85;;;5.55;;
60851;SDS011;48553;50.766;2.900;2023-05-07T12:46:20;10.35;;;5.90;;
60851;SDS011;48553;50.766;2.900;2023-05-07T12:49:20;10.00;;;5.90;;
60851;SDS011;48553;50.766;2.900;2023-05-07T12:52:21;11.20;;;5.90;;
60851;SDS011;48553;50.766;2.900;2023-05-07T12:55:21;10.85;;;5.70;;
60851;SDS011;48553;50.766;2.900;2023-05-07T12:58:25;9.00;;;5.90;;
60851;SDS011;48553;50.766;2.900;2023-05-07T13:01:30;8.80;;;5.03;;
60851;SDS011;48553;50.766;2.900;2023-05-07T13:04:31;11.07;;;5.45;;
60851;SDS011;48553;50.766;2.900;2023-05-07T13:07:32;8.82;;;5.20;;
60851;SDS011;48553;50.766;2.900;2023-05-07T13:10:33;9.63;;;5.05;;
60851;SDS011;48553;50.766;2.900;2023-05-07T13:13:34;8.80;;;5.40;;
60851;SDS011;48553;50.766;2.900;2023-05-07T13:16:36;8.95;;;5.32;;
60851;SDS011;48553;50.766;2.900;2023-05-07T13:19:36;10.30;;;4.97;;
60851;SDS011;48553;50.766;2.900;2023-05-07T13:22:37;9.00;;;5.30;;
60851;SDS011;48553;50.766;2.900;2023-05-07T13:25:38;7.90;;;5.05;;
60851;SDS011;48553;50.766;2.900;2023-05-07T13:28:38;9.15;;;5.20;;
60851;SDS011;48553;50.766;2.900;2023-05-07T13:31:39;7.90;;;5.05;;
60851;SDS011;48553;50.766;2.900;2023-05-07T13:34:42;8.80;;;5.20;;
60851;SDS011;48553;50.766;2.900;2023-05-07T13:37:43;7.03;;;5.07;;
60851;SDS011;48553;50.766;2.900;2023-05-07T13:40:43;8.10;;;5.18;;
60851;SDS011;48553;50.766;2.900;2023-05-07T13:43:43;7.15;;;4.70;;
60851;SDS011;48553;50.766;2.900;2023-05-07T13:46:44;7.35;;;4.75;;
60851;SDS011;48553;50.766;2.900;2023-05-07T13:49:45;6.50;;;4.40;;
60851;SDS011;48553;50.766;2.900;2023-05-07T13:52:45;6.45;;;4.20;;
60851;SDS011;48553;50.766;2.900;2023-05-07T13:55:50;7.85;;;4.50;;
60851;SDS011;48553;50.766;2.900;2023-05-07T13:58:50;7.38;;;4.47;;
60851;SDS011;48553;50.766;2.900;2023-05-07T14:01:51;5.88;;;3.67;;
60851;SDS011;48553;50.766;2.900;2023-05-07T14:04:51;6.00;;;3.60;;
60851;SDS011;48553;50.766;2.900;2023-05-07T14:07:52;6.20;;;3.50;;
60851;SDS011;48553;50.766;2.900;2023-05-07T14:10:53;5.95;;;3.30;;
60851;SDS011;48553;50.766;2.900;2023-05-07T14:13:53;5.47;;;3.30;;
60851;SDS011;48553;50.766;2.900;2023-05-07T14:16:53;5.65;;;3.00;;
60851;SDS011;48553;50.766;2.900;2023-05-07T14:19:54;5.47;;;3.10;;
60851;SDS011;48553;50.766;2.900;2023-05-07T14:22:55;5.40;;;3.03;;
60851;SDS011;48553;50.766;2.900;2023-05-07T14:25:55;6.30;;;3.03;;
60851;SDS011;48553;50.766;2.900;2023-05-07T14:28:57;5.88;;;3.47;;
60851;SDS011;48553;50.766;2.900;2023-05-07T14:31:58;4.97;;;2.90;;
60851;SDS011;48553;50.766;2.900;2023-05-07T14:34:58;7.18;;;3.15;;
60851;SDS011;48553;50.766;2.900;2023-05-07T14:37:59;6.45;;;2.92;;
60851;SDS011;48553;50.766;2.900;2023-05-07T14:40:59;5.60;;;2.90;;
60851;SDS011;48553;50.766;2.900;2023-05-07T14:44:00;4.50;;;2.97;;
60851;SDS011;48553;50.766;2.900;2023-05-07T14:47:01;5.75;;;3.45;;
60851;SDS011;48553;50.766;2.900;2023-05-07T14:50:01;7.40;;;4.03;;
60851;SDS011;48553;50.766;2.900;2023-05-07T14:53:02;7.18;;;3.53;;
60851;SDS011;48553;50.766;2.900;2023-05-07T14:56:04;6.55;;;4.63;;
60851;SDS011;48553;50.766;2.900;2023-05-07T14:59:05;7.78;;;3.60;;
60851;SDS011;48553;50.766;2.900;2023-05-07T15:02:06;6.47;;;3.60;;
60851;SDS011;48553;50.766;2.900;2023-05-07T15:05:07;7.00;;;4.00;;
60851;SDS011;48553;50.766;2.900;2023-05-07T15:08:08;42.38;;;26.67;;
60851;SDS011;48553;50.766;2.900;2023-05-07T15:11:09;72.43;;;47.17;;
60851;SDS011;48553;50.766;2.900;2023-05-07T15:14:09;10.32;;;5.78;;
60851;SDS011;48553;50.766;2.900;2023-05-07T15:17:09;75.40;;;45.08;;
60851;SDS011;48553;50.766;2.900;2023-05-07T15:20:10;58.67;;;33.85;;
60851;SDS011;48553;50.766;2.900;2023-05-07T15:23:11;8.88;;;5.13;;
60851;SDS011;48553;50.766;2.900;2023-05-07T15:26:15;10.82;;;6.25;;
60851;SDS011;48553;50.766;2.900;2023-05-07T15:29:15;58.97;;;36.45;;
60851;SDS011;48553;50.766;2.900;2023-05-07T15:32:15;36.42;;;25.88;;
60851;SDS011;48553;50.766;2.900;2023-05-07T15:35:16;37.78;;;22.50;;
60851;SDS011;48553;50.766;2.900;2023-05-07T15:38:21;28.02;;;19.15;;
60851;SDS011;48553;50.766;2.900;2023-05-07T15:41:21;19.13;;;12.70;;
60851;SDS011;48553;50.766;2.900;2023-05-07T15:44:22;12.88;;;7.85;;
60851;SDS011;48553;50.766;2.900;2023-05-07T15:47:26;84.47;;;52.42;;
60851;SDS011;48553;50.766;2.900;2023-05-07T15:50:26;91.03;;;54.55;;
60851;SDS011;48553;50.766;2.900;2023-05-07T15:53:28;46.42;;;30.35;;
60851;SDS011;48553;50.766;2.900;2023-05-07T15:56:29;122.32;;;73.15;;
60851;SDS011;48553;50.766;2.900;2023-05-07T15:59:32;113.57;;;62.85;;
60851;SDS011;48553;50.766;2.900;2023-05-07T16:02:33;46.70;;;28.08;;
60851;SDS011;48553;50.766;2.900;2023-05-07T16:05:33;105.00;;;59.42;;
60851;SDS011;48553;50.766;2.900;2023-05-07T16:08:34;126.57;;;62.58;;
60851;SDS011;48553;50.766;2.900;2023-05-07T16:11:35;92.45;;;55.15;;
60851;SDS011;48553;50.766;2.900;2023-05-07T16:14:35;95.65;;;52.97;;
60851;SDS011;48553;50.766;2.900;2023-05-07T16:17:36;21.40;;;12.32;;
60851;SDS011;48553;50.766;2.900;2023-05-07T16:20:36;68.70;;;36.80;;
60851;SDS011;48553;50.766;2.900;2023-05-07T16:23:37;67.50;;;44.92;;
60851;SDS011;48553;50.766;2.900;2023-05-07T16:26:37;8.90;;;5.78;;
60851;SDS011;48553;50.766;2.900;2023-05-07T16:29:37;15.98;;;10.18;;
60851;SDS011;48553;50.766;2.900;2023-05-07T16:32:38;7.70;;;4.13;;
60851;SDS011;48553;50.766;2.900;2023-05-07T16:35:39;22.17;;;15.15;;
60851;SDS011;48553;50.766;2.900;2023-05-07T16:38:40;28.38;;;15.57;;
60851;SDS011;48553;50.766;2.900;2023-05-07T16:41:40;12.75;;;7.35;;
60851;SDS011;48553;50.766;2.900;2023-05-07T16:44:41;13.45;;;9.18;;
60851;SDS011;48553;50.766;2.900;2023-05-07T16:47:41;13.38;;;8.77;;
60851;SDS011;48553;50.766;2.900;2023-05-07T16:50:41;10.15;;;6.70;;
60851;SDS011;48553;50.766;2.900;2023-05-07T16:53:43;13.25;;;7.50;;
60851;SDS011;48553;50.766;2.900;2023-05-07T16:56:43;12.05;;;7.72;;
60851;SDS011;48553;50.766;2.900;2023-05-07T16:59:44;82.45;;;50.97;;
60851;SDS011;48553;50.766;2.900;2023-05-07T17:02:44;16.67;;;11.30;;
60851;SDS011;48553;50.766;2.900;2023-05-07T17:05:45;14.05;;;8.32;;
60851;SDS011;48553;50.766;2.900;2023-05-07T17:08:46;13.63;;;8.80;;
60851;SDS011;48553;50.766;2.900;2023-05-07T17:11:46;27.27;;;16.73;;
60851;SDS011;48553;50.766;2.900;2023-05-07T17:14:46;17.02;;;10.52;;
60851;SDS011;48553;50.766;2.900;2023-05-07T17:17:47;23.40;;;13.32;;
60851;SDS011;48553;50.766;2.900;2023-05-07T17:20:47;20.50;;;12.30;;
60851;SDS011;48553;50.766;2.900;2023-05-07T17:23:48;18.90;;;12.05;;
60851;SDS011;48553;50.766;2.900;2023-05-07T17:26:48;18.73;;;11.73;;
60851;SDS011;48553;50.766;2.900;2023-05-07T17:29:49;16.33;;;11.27;;
60851;SDS011;48553;50.766;2.900;2023-05-07T17:32:49;18.13;;;11.20;;
60851;SDS011;48553;50.766;2.900;2023-05-07T17:35:51;15.65;;;10.93;;
60851;SDS011;48553;50.766;2.900;2023-05-07T17:38:52;18.95;;;11.85;;
60851;SDS011;48553;50.766;2.900;2023-05-07T17:41:52;19.58;;;12.32;;
60851;SDS011;48553;50.766;2.900;2023-05-07T17:44:52;21.02;;;13.40;;
60851;SDS011;48553;50.766;2.900;2023-05-07T17:47:54;21.40;;;14.15;;
60851;SDS011;48553;50.766;2.900;2023-05-07T17:50:59;24.67;;;15.25;;
60851;SDS011;48553;50.766;2.900;2023-05-07T17:54:01;26.00;;;16.02;;
60851;SDS011;48553;50.766;2.900;2023-05-07T17:57:02;27.58;;;16.17;;
60851;SDS011;48553;50.766;2.900;2023-05-07T18:00:03;26.95;;;16.45;;
60851;SDS011;48553;50.766;2.900;2023-05-07T18:03:08;26.13;;;16.33;;
60851;SDS011;48553;50.766;2.900;2023-05-07T18:06:08;29.33;;;16.23;;
60851;SDS011;48553;50.766;2.900;2023-05-07T18:09:08;29.40;;;16.77;;
60851;SDS011;48553;50.766;2.900;2023-05-07T18:12:09;28.55;;;16.83;;
60851;SDS011;48553;50.766;2.900;2023-05-07T18:15:09;26.58;;;15.65;;
60851;SDS011;48553;50.766;2.900;2023-05-07T18:18:11;24.58;;;15.65;;
60851;SDS011;48553;50.766;2.900;2023-05-07T18:21:12;27.67;;;15.20;;